Chesterfield, MA (01012)

5:56 AM EDT on September 02, 2015 (GMT -0400)
Chesterfield | | Change Station
CLOSE
Current Station
Personal Weather Station
Location: Chesterfield, MA
Elevation: 1190 ft
Nearby Weather Stations

Elev 1190 ft 42.36 °N, 72.85 °W | Updated 10 minutes ago

Partly Cloudy
Partly Cloudy
59.0 °F
Feels Like 59.0 °F
N
0.0
Wind Variable Wind from South
Gusts 0.0 mph

Today
High -- | Low -- °F
--% Chance of Precip.
Yesterday
High -- | Low -- °F
Precip. -- in
6:17 AM 7:24 PM
Waning Gibbous, 81% visible
Pressure 30.01 in
Visibility 1.2 miles
Clouds Few 500 ft
Dew Point 59 °F
Humidity 98%
Rainfall 0.00 in
Snow Depth Not available.
UV 0 out of 12
Pollen 9.80 out of 12
Air Quality Not available.
Flu Activity Not available.
METAR KBAF 020953Z 00000KT 1 1/4SM BR FEW005 15/14 A3002 RMK AO2 SLP163 T01500139
Pressure 30.01 in
Visibility 1.2 miles
Clouds Few 500 ft
Dew Point 59 °F
Humidity 98%
Rainfall 0.00 in
Snow Depth Not available.
UV 0 out of 12
Pollen 9.80 out of 12
Air Quality Not available.
Flu Activity Not available.
METAR KBAF 020953Z 00000KT 1 1/4SM BR FEW005 15/14 A3002 RMK AO2 SLP163 T01500139

10-Day Weather Forecast

×

Almanac

Astronomy

Sep. 02, 2015 Rise Set
Actual Time
Civil Twilight
Nautical Twilight
Astronomical Twilight
Moon
Length of Visible Light
Length of Day
Tomorrow will be .
, % of the Moon is Illuminated

Today's Extremes

State Highs State Lows

Community

WunderPhotos

Upload Photos

1,851,731 photos uploaded!

WunderBlogs® & News

Nearby

Air Quality

  Air Quality AQ Index Pollutant
Not available.

Snow Depth

Station Depth Elevation

Earthquake Activity

City Distance Mag. Time & Date
Minimum magnitude displayed is 2.5.

Coastal Water Temperatures

Place Temperature

Stations

Nearby Weather Stations

Station Location Temp. Windchill Dew Point Humidity Wind Precip. Elev Updated Type